Flight Track Log - Related Links

Times and Time Zones

All times are in EDT time to prevent confusion due to time zone crossing. See the SWA127 flight status page for this flight to view local times or setup timezone preferences in your user account.

Time Position Orientation Groundspeed Altitude Reporting Facility
EDT Latitude Longitude Course Direction KTS km/h feet Rate Location/Type
Wed 12:11:06 PM 29.6333 -95.2653 149° Southeast 139 257 800  Level Houston Center
Wed 12:11:36 PM 29.6164 -95.2536 149° Southeast 171 317 1.400 2.087 Climbing Houston Center
Wed 12:12:38 PM 29.5678 -95.2289 156° South 195 360 4.000 2.613 Climbing Houston Center
Wed 12:13:40 PM 29.5031 -95.1994 158° South 224 415 6.800 2.613 Climbing Houston Center
Wed 12:14:42 PM 29.4381 -95.2333 204° Southwest 260 481 9.400 1.887 Climbing Houston Center
Wed 12:15:44 PM 29.3642 -95.2725 205° Southwest 293 542 10.700 1.597 Climbing Houston Center
Wed 12:16:46 PM 29.2753 -95.3217 206° Southwest 353 653 12.700 2.129 Climbing Houston Center
Wed 12:17:48 PM 29.1814 -95.3728 205° Southwest 371 687 15.100 2.274 Climbing Houston Center
Wed 12:18:50 PM 29.0936 -95.4442 215° Southwest 384 711 17.400 2.323 Climbing Houston Center
Wed 12:19:52 PM 28.9872 -95.5314 216° Southwest 391 724 19.900 2.112 Climbing Houston Center
Wed 12:20:55 PM 28.8958 -95.6056 215° Southwest 402 745 21.800 1.632 Climbing Houston Center
Wed 12:21:57 PM 28.8022 -95.6822 216° Southwest 411 761 23.300 1.403 Climbing Houston Center
Wed 12:22:59 PM 28.7061 -95.7608 216° Southwest 423 784 24.700 1.452 Climbing Houston Center
Wed 12:24:01 PM 28.6089 -95.8397 215° Southwest 427 790 26.300 1.694 Climbing Houston Center
Wed 12:25:03 PM 28.5131 -95.9175 216° Southwest 425 787 28.200 1.632 Climbing Houston Center
Wed 12:26:06 PM 28.4094 -96.0011 215° Southwest 420 777 29.700 1.488 Climbing Houston Center
Wed 12:27:08 PM 28.3131 -96.0794 216° Southwest 425 787 31.300 1.355 Climbing Houston Center
Wed 12:28:10 PM 28.1975 -96.1728 215° Southwest 425 787 32.500 1.161 Climbing Houston Center
Wed 12:29:12 PM 28.0989 -96.2517 215° Southwest 431 798 33.700 435 Climbing Houston Center
Wed 12:30:14 PM 28.0011 -96.3283 215° Southwest 429 795 33.400 -532 Descending Houston Center
Wed 12:31:16 PM 27.9050 -96.4050 215° Southwest 424 785 32.600 -677 Descending Houston Center
Wed 12:32:18 PM 27.8086 -96.4814 215° Southwest 422 782 32.000 -290 Descending Houston Center
Wed 12:33:20 PM 27.7100 -96.5606 215° Southwest 430 797 32.000 -48 Level Houston Center
Wed 12:34:23 PM 27.5858 -96.6592 215° Southwest 448 830 31.900  Descending Houston Center
Wed 12:35:25 PM 27.4836 -96.7394 215° Southwest 448 830 32.000 -968 Climbing Houston Center
Wed 12:36:27 PM 27.3811 -96.8206 215° Southwest 440 814 29.900 -2.710 Descending Houston Center
Wed 12:37:29 PM 27.2822 -96.8978 215° Southwest 434 803 26.400 -2.903 Descending Houston Center
Wed 12:38:31 PM 27.1828 -96.9756 215° Southwest 435 806 23.900 -1.403 Descending Houston Center
Wed 12:39:33 PM 27.1003 -97.0417 216° Southwest 377 698 23.500 -2.328 Descending Houston Center
Wed 12:40:27 PM 27.0183 -97.1047 214° Southwest 353 653 19.400 -4.467 Descending Houston Center
Wed 12:41:03 PM 26.9603 -97.1503 215° Southwest 395 732 16.800 -3.000 Descending Houston Center
Wed 12:41:37 PM 26.9122 -97.1872 214° Southwest 382 708 15.900 -2.149 Descending Houston Center
Wed 12:42:10 PM 26.8656 -97.2247 216° Southwest 368 681 14.400 -3.000 Descending Houston Center
Wed 12:42:39 PM 26.8267 -97.2553 215° Southwest 372 689 12.800 -3.344 Descending Houston Center
Wed 12:43:11 PM 26.7800 -97.2903 214° Southwest 367 679 11.000 -2.667 Descending Houston Center
Wed 12:43:42 PM 26.7414 -97.3194 214° Southwest 370 686 10.000 -1.100 Descending Houston Center
Wed 12:44:11 PM 26.7028 -97.3525 217° Southwest 334 618 9.900 -387 Descending Houston Center
Wed 12:44:44 PM 26.6681 -97.3767 212° Southwest 290 538 9.600 -1.082 Descending Houston Center
Wed 12:45:12 PM 26.6406 -97.3986 216° Southwest 271 502 8.800 -1.645 Descending Houston Center
Wed 12:45:46 PM 26.6083 -97.4242 215° Southwest 266 492 7.900 -1.574 Descending Houston Center
Wed 12:46:13 PM 26.5803 -97.4442 213° Southwest 263 488 7.200 -1.645 Descending Houston Center
Wed 12:46:48 PM 26.5442 -97.4722 215° Southwest 258 478 6.200 -1.600 Descending Houston Center
Wed 12:47:13 PM 26.5203 -97.4922 217° Southwest 258 478 5.600 -1.548 Descending Houston Center
Wed 12:47:50 PM 26.4944 -97.5269 230° Southwest 255 472 4.600 -1.574 Descending Houston Center
Wed 12:48:14 PM 26.4764 -97.5519 231° Southwest 256 475 4.000 -1.645 Descending Houston Center
Wed 12:48:52 PM 26.4472 -97.5942 232° Southwest 254 470 2.900 -1.700 Descending Houston Center
Wed 12:49:14 PM 26.4286 -97.6169 228° Southwest 253 468 2.300 -871 Descending Houston Center
Wed 12:49:54 PM 26.3989 -97.6467 222° Southwest 244 452 2.000 -269 Descending Houston Center
Wed 12:50:21 PM 26.3744 -97.6592 205° Southwest 212 393 2.000  Level Houston Center
Wed 12:50:56 PM 26.3508 -97.6581 178° South 204 378 2.000 -295 Level Houston Center
Wed 12:51:22 PM 26.3239 -97.6589 182° South 181 335 1.700 -774 Descending Houston Center
Wed 12:51:58 PM 26.2983 -97.6578 178° South 167 309 1.200 -689 Descending Houston Center
Wed 12:52:23 PM 26.2839 -97.6597 187° South 142 262 1.000 -581 Descending Houston Center
Wed 12:53:00 PM 26.2628 -97.6586 177° South 132 245 600 -545 Descending Houston Center
Wed 12:54:02 PM 26.2308 -97.6586 180° South 131 243 100 -484 Descending Houston Center

Login

Don't have an account? Register now (free) for customized features, flight alerts, and more!